sensor_id;sensor_type;location;lat;lon;timestamp;temperature;humidity
80701;DHT22;71609;42.630;23.380;2023-12-20T00:01:25;21.00;37.10
80701;DHT22;71609;42.630;23.380;2023-12-20T00:03:51;20.90;37.00
80701;DHT22;71609;42.630;23.380;2023-12-20T00:06:16;20.90;37.00
80701;DHT22;71609;42.630;23.380;2023-12-20T00:08:42;20.90;37.10
80701;DHT22;71609;42.630;23.380;2023-12-20T00:11:09;20.90;37.10
80701;DHT22;71609;42.630;23.380;2023-12-20T00:13:35;20.90;37.10
80701;DHT22;71609;42.630;23.380;2023-12-20T00:16:00;20.90;37.00
80701;DHT22;71609;42.630;23.380;2023-12-20T00:18:26;20.90;37.00
80701;DHT22;71609;42.630;23.380;2023-12-20T00:20:52;20.90;37.00
80701;DHT22;71609;42.630;23.380;2023-12-20T00:23:18;20.90;37.10
80701;DHT22;71609;42.630;23.380;2023-12-20T00:25:43;20.90;37.10
80701;DHT22;71609;42.630;23.380;2023-12-20T00:28:09;20.90;37.00
80701;DHT22;71609;42.630;23.380;2023-12-20T00:30:35;20.90;37.00
80701;DHT22;71609;42.630;23.380;2023-12-20T00:33:01;20.90;37.00
80701;DHT22;71609;42.630;23.380;2023-12-20T00:35:28;20.90;37.10
80701;DHT22;71609;42.630;23.380;2023-12-20T00:37:53;20.90;37.00
80701;DHT22;71609;42.630;23.380;2023-12-20T00:40:19;20.90;37.00
80701;DHT22;71609;42.630;23.380;2023-12-20T00:42:46;20.90;37.00
80701;DHT22;71609;42.630;23.380;2023-12-20T00:45:12;20.90;37.00
80701;DHT22;71609;42.630;23.380;2023-12-20T00:47:38;20.90;37.00
80701;DHT22;71609;42.630;23.380;2023-12-20T00:50:04;20.80;36.90
80701;DHT22;71609;42.630;23.380;2023-12-20T00:52:30;20.90;37.00
80701;DHT22;71609;42.630;23.380;2023-12-20T00:54:56;20.90;37.00
80701;DHT22;71609;42.630;23.380;2023-12-20T00:57:22;20.90;37.00
80701;DHT22;71609;42.630;23.380;2023-12-20T00:59:47;20.90;37.00
80701;DHT22;71609;42.630;23.380;2023-12-20T01:02:13;20.80;36.90
80701;DHT22;71609;42.630;23.380;2023-12-20T01:04:39;20.90;37.00
80701;DHT22;71609;42.630;23.380;2023-12-20T01:07:04;20.80;37.00
80701;DHT22;71609;42.630;23.380;2023-12-20T01:09:30;20.90;37.00
80701;DHT22;71609;42.630;23.380;2023-12-20T01:11:56;20.90;37.00
80701;DHT22;71609;42.630;23.380;2023-12-20T01:14:22;20.90;37.00
80701;DHT22;71609;42.630;23.380;2023-12-20T01:16:47;20.80;36.90
80701;DHT22;71609;42.630;23.380;2023-12-20T01:19:13;20.80;36.90
80701;DHT22;71609;42.630;23.380;2023-12-20T01:21:40;20.80;36.90
80701;DHT22;71609;42.630;23.380;2023-12-20T01:24:06;20.80;36.90
80701;DHT22;71609;42.630;23.380;2023-12-20T01:26:31;20.80;36.90
80701;DHT22;71609;42.630;23.380;2023-12-20T01:28:57;20.80;36.90
80701;DHT22;71609;42.630;23.380;2023-12-20T01:31:23;20.80;36.90
80701;DHT22;71609;42.630;23.380;2023-12-20T01:33:49;20.80;36.90
80701;DHT22;71609;42.630;23.380;2023-12-20T01:36:14;20.80;36.90
80701;DHT22;71609;42.630;23.380;2023-12-20T01:38:40;20.80;36.90
80701;DHT22;71609;42.630;23.380;2023-12-20T01:41:06;20.80;36.90
80701;DHT22;71609;42.630;23.380;2023-12-20T01:43:31;20.80;36.90
80701;DHT22;71609;42.630;23.380;2023-12-20T01:45:58;20.80;36.90
80701;DHT22;71609;42.630;23.380;2023-12-20T01:48:25;20.80;36.90
80701;DHT22;71609;42.630;23.380;2023-12-20T01:50:51;20.80;36.90
80701;DHT22;71609;42.630;23.380;2023-12-20T01:53:20;20.80;36.90
80701;DHT22;71609;42.630;23.380;2023-12-20T01:55:48;20.80;36.90
80701;DHT22;71609;42.630;23.380;2023-12-20T01:58:14;20.80;36.90
80701;DHT22;71609;42.630;23.380;2023-12-20T02:00:41;20.80;36.80
80701;DHT22;71609;42.630;23.380;2023-12-20T02:03:06;20.80;36.90
80701;DHT22;71609;42.630;23.380;2023-12-20T02:05:34;20.80;36.90
80701;DHT22;71609;42.630;23.380;2023-12-20T02:08:00;20.80;36.90
80701;DHT22;71609;42.630;23.380;2023-12-20T02:10:27;20.80;36.90
80701;DHT22;71609;42.630;23.380;2023-12-20T02:12:53;20.80;36.90
80701;DHT22;71609;42.630;23.380;2023-12-20T02:15:19;20.80;36.90
80701;DHT22;71609;42.630;23.380;2023-12-20T02:17:47;20.80;36.90
80701;DHT22;71609;42.630;23.380;2023-12-20T02:20:13;20.80;36.90
80701;DHT22;71609;42.630;23.380;2023-12-20T02:22:39;20.80;36.80
80701;DHT22;71609;42.630;23.380;2023-12-20T02:25:05;20.80;37.00
80701;DHT22;71609;42.630;23.380;2023-12-20T02:27:31;20.80;36.90
80701;DHT22;71609;42.630;23.380;2023-12-20T02:29:57;20.70;36.80
80701;DHT22;71609;42.630;23.380;2023-12-20T02:32:23;20.80;36.90
80701;DHT22;71609;42.630;23.380;2023-12-20T02:34:51;20.80;36.90
80701;DHT22;71609;42.630;23.380;2023-12-20T02:37:17;20.70;36.80
80701;DHT22;71609;42.630;23.380;2023-12-20T02:39:43;20.70;36.80
80701;DHT22;71609;42.630;23.380;2023-12-20T02:42:08;20.80;36.90
80701;DHT22;71609;42.630;23.380;2023-12-20T02:44:34;20.70;36.90
80701;DHT22;71609;42.630;23.380;2023-12-20T02:47:00;20.70;36.90
80701;DHT22;71609;42.630;23.380;2023-12-20T02:49:26;20.70;36.80
80701;DHT22;71609;42.630;23.380;2023-12-20T02:51:51;20.80;36.90
80701;DHT22;71609;42.630;23.380;2023-12-20T02:54:17;20.70;36.80
80701;DHT22;71609;42.630;23.380;2023-12-20T02:56:43;20.70;36.80
80701;DHT22;71609;42.630;23.380;2023-12-20T02:59:09;20.70;36.90
80701;DHT22;71609;42.630;23.380;2023-12-20T03:01:34;20.70;36.80
80701;DHT22;71609;42.630;23.380;2023-12-20T03:04:01;20.70;36.80
80701;DHT22;71609;42.630;23.380;2023-12-20T03:06:26;20.70;36.90
80701;DHT22;71609;42.630;23.380;2023-12-20T03:08:52;20.80;36.90
80701;DHT22;71609;42.630;23.380;2023-12-20T03:11:18;20.80;36.90
80701;DHT22;71609;42.630;23.380;2023-12-20T03:13:44;20.80;36.90
80701;DHT22;71609;42.630;23.380;2023-12-20T03:16:11;20.80;36.90
80701;DHT22;71609;42.630;23.380;2023-12-20T03:18:37;20.70;36.80
80701;DHT22;71609;42.630;23.380;2023-12-20T03:21:03;20.80;36.90
80701;DHT22;71609;42.630;23.380;2023-12-20T03:23:29;20.80;36.90
80701;DHT22;71609;42.630;23.380;2023-12-20T03:25:56;20.80;36.90
80701;DHT22;71609;42.630;23.380;2023-12-20T03:28:22;20.80;36.90
80701;DHT22;71609;42.630;23.380;2023-12-20T03:30:48;20.80;36.90
80701;DHT22;71609;42.630;23.380;2023-12-20T03:33:14;20.70;36.80
80701;DHT22;71609;42.630;23.380;2023-12-20T03:35:40;20.80;36.90
80701;DHT22;71609;42.630;23.380;2023-12-20T03:38:06;20.80;36.80
80701;DHT22;71609;42.630;23.380;2023-12-20T03:40:32;20.70;36.80
80701;DHT22;71609;42.630;23.380;2023-12-20T03:42:57;20.80;36.80
80701;DHT22;71609;42.630;23.380;2023-12-20T03:45:23;20.80;36.80
80701;DHT22;71609;42.630;23.380;2023-12-20T03:47:49;20.80;36.70
80701;DHT22;71609;42.630;23.380;2023-12-20T03:50:15;20.80;36.70
80701;DHT22;71609;42.630;23.380;2023-12-20T03:52:41;20.80;36.80
80701;DHT22;71609;42.630;23.380;2023-12-20T03:55:07;20.80;36.70
80701;DHT22;71609;42.630;23.380;2023-12-20T03:57:32;20.80;36.70
80701;DHT22;71609;42.630;23.380;2023-12-20T03:59:58;20.80;36.70
80701;DHT22;71609;42.630;23.380;2023-12-20T04:02:24;20.80;36.70
80701;DHT22;71609;42.630;23.380;2023-12-20T04:04:50;20.80;36.70
80701;DHT22;71609;42.630;23.380;2023-12-20T04:07:18;20.80;36.70
80701;DHT22;71609;42.630;23.380;2023-12-20T04:09:44;20.80;36.70
80701;DHT22;71609;42.630;23.380;2023-12-20T04:12:09;20.80;36.70
80701;DHT22;71609;42.630;23.380;2023-12-20T04:14:35;20.80;36.70
80701;DHT22;71609;42.630;23.380;2023-12-20T04:17:01;20.80;36.60
80701;DHT22;71609;42.630;23.380;2023-12-20T04:19:27;20.80;36.70
80701;DHT22;71609;42.630;23.380;2023-12-20T04:21:52;20.80;36.70
80701;DHT22;71609;42.630;23.380;2023-12-20T04:24:18;20.80;36.70
80701;DHT22;71609;42.630;23.380;2023-12-20T04:26:44;20.80;36.70
80701;DHT22;71609;42.630;23.380;2023-12-20T04:29:10;20.80;36.70
80701;DHT22;71609;42.630;23.380;2023-12-20T04:31:35;20.80;36.70
80701;DHT22;71609;42.630;23.380;2023-12-20T04:34:01;20.80;36.60
80701;DHT22;71609;42.630;23.380;2023-12-20T04:36:27;20.80;36.70
80701;DHT22;71609;42.630;23.380;2023-12-20T04:38:55;20.80;36.80
80701;DHT22;71609;42.630;23.380;2023-12-20T04:41:21;20.80;36.60
80701;DHT22;71609;42.630;23.380;2023-12-20T04:43:46;20.70;36.60
80701;DHT22;71609;42.630;23.380;2023-12-20T04:46:12;20.80;36.60
80701;DHT22;71609;42.630;23.380;2023-12-20T04:48:38;20.70;36.60
80701;DHT22;71609;42.630;23.380;2023-12-20T04:51:04;20.80;36.60
80701;DHT22;71609;42.630;23.380;2023-12-20T04:53:30;20.70;36.60
80701;DHT22;71609;42.630;23.380;2023-12-20T04:55:55;20.70;36.50
80701;DHT22;71609;42.630;23.380;2023-12-20T04:58:21;20.80;36.60
80701;DHT22;71609;42.630;23.380;2023-12-20T05:00:47;20.70;36.60
80701;DHT22;71609;42.630;23.380;2023-12-20T05:03:13;20.70;36.60
80701;DHT22;71609;42.630;23.380;2023-12-20T05:05:39;20.70;36.60
80701;DHT22;71609;42.630;23.380;2023-12-20T05:08:04;20.80;36.70
80701;DHT22;71609;42.630;23.380;2023-12-20T05:10:30;20.70;36.60
80701;DHT22;71609;42.630;23.380;2023-12-20T05:12:56;20.80;36.30
80701;DHT22;71609;42.630;23.380;2023-12-20T05:15:22;20.80;35.80
80701;DHT22;71609;42.630;23.380;2023-12-20T05:17:47;20.80;35.00
80701;DHT22;71609;42.630;23.380;2023-12-20T05:20:13;20.80;34.20
80701;DHT22;71609;42.630;23.380;2023-12-20T05:22:41;20.80;33.90
80701;DHT22;71609;42.630;23.380;2023-12-20T05:25:07;20.80;33.50
80701;DHT22;71609;42.630;23.380;2023-12-20T05:27:33;20.80;32.90
80701;DHT22;71609;42.630;23.380;2023-12-20T05:29:59;20.70;31.90
80701;DHT22;71609;42.630;23.380;2023-12-20T05:32:24;20.70;31.80
80701;DHT22;71609;42.630;23.380;2023-12-20T05:34:50;20.70;31.70
80701;DHT22;71609;42.630;23.380;2023-12-20T05:37:16;20.70;31.10
80701;DHT22;71609;42.630;23.380;2023-12-20T05:39:42;20.70;31.40
80701;DHT22;71609;42.630;23.380;2023-12-20T05:42:07;20.60;31.40
80701;DHT22;71609;42.630;23.380;2023-12-20T05:44:33;20.60;31.30
80701;DHT22;71609;42.630;23.380;2023-12-20T05:46:59;20.60;31.10
80701;DHT22;71609;42.630;23.380;2023-12-20T05:49:25;20.50;30.10
80701;DHT22;71609;42.630;23.380;2023-12-20T05:51:50;20.50;30.00
80701;DHT22;71609;42.630;23.380;2023-12-20T05:54:16;20.40;29.60
80701;DHT22;71609;42.630;23.380;2023-12-20T05:56:42;20.40;29.80
80701;DHT22;71609;42.630;23.380;2023-12-20T05:59:08;20.40;29.70
80701;DHT22;71609;42.630;23.380;2023-12-20T06:01:33;20.40;29.40
80701;DHT22;71609;42.630;23.380;2023-12-20T06:03:59;20.30;29.90
80701;DHT22;71609;42.630;23.380;2023-12-20T06:06:25;20.30;30.50
80701;DHT22;71609;42.630;23.380;2023-12-20T06:08:51;20.30;30.40
80701;DHT22;71609;42.630;23.380;2023-12-20T06:11:16;20.30;31.20
80701;DHT22;71609;42.630;23.380;2023-12-20T06:13:42;20.30;30.70
80701;DHT22;71609;42.630;23.380;2023-12-20T06:16:08;20.30;31.10
80701;DHT22;71609;42.630;23.380;2023-12-20T06:18:34;20.30;31.50
80701;DHT22;71609;42.630;23.380;2023-12-20T06:20:59;20.30;31.90
80701;DHT22;71609;42.630;23.380;2023-12-20T06:23:25;20.30;31.90
80701;DHT22;71609;42.630;23.380;2023-12-20T06:25:52;20.30;31.40
80701;DHT22;71609;42.630;23.380;2023-12-20T06:28:18;20.20;31.20
80701;DHT22;71609;42.630;23.380;2023-12-20T06:30:44;20.20;31.70
80701;DHT22;71609;42.630;23.380;2023-12-20T06:33:11;20.20;32.00
80701;DHT22;71609;42.630;23.380;2023-12-20T06:35:37;20.20;32.00
80701;DHT22;71609;42.630;23.380;2023-12-20T06:38:03;20.20;31.20
80701;DHT22;71609;42.630;23.380;2023-12-20T06:40:29;20.20;31.40
80701;DHT22;71609;42.630;23.380;2023-12-20T06:42:55;20.10;32.60
80701;DHT22;71609;42.630;23.380;2023-12-20T06:45:20;20.20;31.60
80701;DHT22;71609;42.630;23.380;2023-12-20T06:47:46;20.20;31.80
80701;DHT22;71609;42.630;23.380;2023-12-20T06:50:12;20.20;32.20
80701;DHT22;71609;42.630;23.380;2023-12-20T06:52:37;20.20;32.70
80701;DHT22;71609;42.630;23.380;2023-12-20T06:55:04;20.10;32.90
80701;DHT22;71609;42.630;23.380;2023-12-20T06:57:30;20.10;33.20
80701;DHT22;71609;42.630;23.380;2023-12-20T06:59:56;20.10;33.70
80701;DHT22;71609;42.630;23.380;2023-12-20T07:02:22;20.20;33.70
80701;DHT22;71609;42.630;23.380;2023-12-20T07:04:48;20.10;33.60
80701;DHT22;71609;42.630;23.380;2023-12-20T07:07:14;20.10;33.40
80701;DHT22;71609;42.630;23.380;2023-12-20T07:09:39;20.10;33.70
80701;DHT22;71609;42.630;23.380;2023-12-20T07:12:08;20.20;34.00
80701;DHT22;71609;42.630;23.380;2023-12-20T07:14:34;20.20;34.60
80701;DHT22;71609;42.630;23.380;2023-12-20T07:17:00;20.20;35.00
80701;DHT22;71609;42.630;23.380;2023-12-20T07:19:26;20.30;35.40
80701;DHT22;71609;42.630;23.380;2023-12-20T07:21:51;20.30;35.70
80701;DHT22;71609;42.630;23.380;2023-12-20T07:24:18;20.30;35.80
80701;DHT22;71609;42.630;23.380;2023-12-20T07:26:44;20.40;35.70
80701;DHT22;71609;42.630;23.380;2023-12-20T07:29:10;20.40;35.60
80701;DHT22;71609;42.630;23.380;2023-12-20T07:31:35;20.50;35.80
80701;DHT22;71609;42.630;23.380;2023-12-20T07:34:01;20.50;36.20
80701;DHT22;71609;42.630;23.380;2023-12-20T07:36:27;20.60;36.60
80701;DHT22;71609;42.630;23.380;2023-12-20T07:38:53;20.60;35.90
80701;DHT22;71609;42.630;23.380;2023-12-20T07:41:18;20.70;35.60
80701;DHT22;71609;42.630;23.380;2023-12-20T07:43:46;20.70;35.50
80701;DHT22;71609;42.630;23.380;2023-12-20T07:46:12;20.70;36.10
80701;DHT22;71609;42.630;23.380;2023-12-20T07:48:38;20.70;36.40
80701;DHT22;71609;42.630;23.380;2023-12-20T07:51:04;20.80;36.40
80701;DHT22;71609;42.630;23.380;2023-12-20T07:53:33;20.80;36.40
80701;DHT22;71609;42.630;23.380;2023-12-20T07:55:58;20.90;37.10
80701;DHT22;71609;42.630;23.380;2023-12-20T07:58:24;20.90;35.90
80701;DHT22;71609;42.630;23.380;2023-12-20T08:00:50;20.90;35.50
80701;DHT22;71609;42.630;23.380;2023-12-20T08:03:16;21.00;35.50
80701;DHT22;71609;42.630;23.380;2023-12-20T08:05:41;21.00;35.60
80701;DHT22;71609;42.630;23.380;2023-12-20T08:08:14;21.00;35.00
80701;DHT22;71609;42.630;23.380;2023-12-20T08:10:40;21.10;34.90
80701;DHT22;71609;42.630;23.380;2023-12-20T08:13:05;21.10;35.20
80701;DHT22;71609;42.630;23.380;2023-12-20T08:15:32;21.20;35.40
80701;DHT22;71609;42.630;23.380;2023-12-20T08:17:58;21.20;35.50
80701;DHT22;71609;42.630;23.380;2023-12-20T08:20:23;21.20;35.50
80701;DHT22;71609;42.630;23.380;2023-12-20T08:22:55;21.20;35.30
80701;DHT22;71609;42.630;23.380;2023-12-20T08:25:20;21.20;35.70
80701;DHT22;71609;42.630;23.380;2023-12-20T08:27:46;21.20;35.60
80701;DHT22;71609;42.630;23.380;2023-12-20T08:30:12;21.20;35.60
80701;DHT22;71609;42.630;23.380;2023-12-20T08:32:38;21.30;35.70
80701;DHT22;71609;42.630;23.380;2023-12-20T08:35:04;21.30;35.50
80701;DHT22;71609;42.630;23.380;2023-12-20T08:37:31;21.30;35.50
80701;DHT22;71609;42.630;23.380;2023-12-20T08:39:56;21.30;35.50
80701;DHT22;71609;42.630;23.380;2023-12-20T08:42:22;21.30;35.70
80701;DHT22;71609;42.630;23.380;2023-12-20T08:44:50;21.30;36.00
80701;DHT22;71609;42.630;23.380;2023-12-20T08:47:15;21.30;35.70
80701;DHT22;71609;42.630;23.380;2023-12-20T08:49:43;21.30;35.70
80701;DHT22;71609;42.630;23.380;2023-12-20T08:52:09;21.40;34.20
80701;DHT22;71609;42.630;23.380;2023-12-20T08:54:34;21.50;33.40
80701;DHT22;71609;42.630;23.380;2023-12-20T08:57:00;21.50;33.00
80701;DHT22;71609;42.630;23.380;2023-12-20T08:59:26;21.50;32.90
80701;DHT22;71609;42.630;23.380;2023-12-20T09:01:52;21.50;32.70
80701;DHT22;71609;42.630;23.380;2023-12-20T09:04:20;21.60;32.80
80701;DHT22;71609;42.630;23.380;2023-12-20T09:06:46;21.60;34.20
80701;DHT22;71609;42.630;23.380;2023-12-20T09:09:12;21.60;33.10
80701;DHT22;71609;42.630;23.380;2023-12-20T09:11:39;21.60;33.50
80701;DHT22;71609;42.630;23.380;2023-12-20T09:14:05;21.60;34.10
80701;DHT22;71609;42.630;23.380;2023-12-20T09:16:31;21.60;34.20
80701;DHT22;71609;42.630;23.380;2023-12-20T09:18:59;21.60;34.10
80701;DHT22;71609;42.630;23.380;2023-12-20T09:21:25;21.60;33.80
80701;DHT22;71609;42.630;23.380;2023-12-20T09:23:51;21.70;33.80
80701;DHT22;71609;42.630;23.380;2023-12-20T09:26:17;21.70;33.90
80701;DHT22;71609;42.630;23.380;2023-12-20T09:28:43;21.70;34.00
80701;DHT22;71609;42.630;23.380;2023-12-20T09:31:09;21.70;34.10
80701;DHT22;71609;42.630;23.380;2023-12-20T09:33:35;21.70;34.50
80701;DHT22;71609;42.630;23.380;2023-12-20T09:36:01;21.70;34.70
80701;DHT22;71609;42.630;23.380;2023-12-20T09:38:26;21.70;34.50
80701;DHT22;71609;42.630;23.380;2023-12-20T09:40:52;21.60;35.20
80701;DHT22;71609;42.630;23.380;2023-12-20T09:43:20;21.60;34.80
80701;DHT22;71609;42.630;23.380;2023-12-20T09:45:47;21.60;35.00
80701;DHT22;71609;42.630;23.380;2023-12-20T09:48:13;21.70;35.00
80701;DHT22;71609;42.630;23.380;2023-12-20T09:50:43;21.70;34.90
80701;DHT22;71609;42.630;23.380;2023-12-20T09:53:11;21.60;35.10
80701;DHT22;71609;42.630;23.380;2023-12-20T09:55:41;21.60;35.50
80701;DHT22;71609;42.630;23.380;2023-12-20T09:58:07;21.60;35.60
80701;DHT22;71609;42.630;23.380;2023-12-20T10:00:35;21.60;35.20
80701;DHT22;71609;42.630;23.380;2023-12-20T10:03:01;21.70;35.60
80701;DHT22;71609;42.630;23.380;2023-12-20T10:05:34;21.70;35.80
80701;DHT22;71609;42.630;23.380;2023-12-20T10:08:00;21.70;35.80
80701;DHT22;71609;42.630;23.380;2023-12-20T10:10:27;21.70;36.20
80701;DHT22;71609;42.630;23.380;2023-12-20T10:15:28;21.80;36.70
80701;DHT22;71609;42.630;23.380;2023-12-20T10:17:54;21.80;36.50
80701;DHT22;71609;42.630;23.380;2023-12-20T10:20:20;21.80;36.40
80701;DHT22;71609;42.630;23.380;2023-12-20T10:22:46;21.80;36.40
80701;DHT22;71609;42.630;23.380;2023-12-20T10:25:13;21.80;36.40
80701;DHT22;71609;42.630;23.380;2023-12-20T10:27:38;21.90;36.30
80701;DHT22;71609;42.630;23.380;2023-12-20T10:30:04;21.90;36.30
80701;DHT22;71609;42.630;23.380;2023-12-20T10:32:31;22.00;36.40
80701;DHT22;71609;42.630;23.380;2023-12-20T10:34:57;22.00;36.40
80701;DHT22;71609;42.630;23.380;2023-12-20T10:37:24;22.10;36.30
80701;DHT22;71609;42.630;23.380;2023-12-20T10:39:54;22.10;34.90
80701;DHT22;71609;42.630;23.380;2023-12-20T10:42:26;22.10;33.60
80701;DHT22;71609;42.630;23.380;2023-12-20T10:44:52;22.10;33.90
80701;DHT22;71609;42.630;23.380;2023-12-20T10:47:20;22.20;34.30
80701;DHT22;71609;42.630;23.380;2023-12-20T10:49:46;22.20;35.00
80701;DHT22;71609;42.630;23.380;2023-12-20T10:52:13;22.20;34.10
80701;DHT22;71609;42.630;23.380;2023-12-20T10:54:42;22.30;33.20
80701;DHT22;71609;42.630;23.380;2023-12-20T10:57:07;22.30;32.40
80701;DHT22;71609;42.630;23.380;2023-12-20T10:59:37;22.30;32.70
80701;DHT22;71609;42.630;23.380;2023-12-20T11:02:06;22.30;32.40
80701;DHT22;71609;42.630;23.380;2023-12-20T11:04:55;22.40;33.00
80701;DHT22;71609;42.630;23.380;2023-12-20T11:07:29;22.40;32.30
80701;DHT22;71609;42.630;23.380;2023-12-20T11:10:01;22.40;32.20
80701;DHT22;71609;42.630;23.380;2023-12-20T11:12:39;22.40;32.30
80701;DHT22;71609;42.630;23.380;2023-12-20T11:15:08;22.40;32.00
80701;DHT22;71609;42.630;23.380;2023-12-20T11:17:33;22.40;32.30
80701;DHT22;71609;42.630;23.380;2023-12-20T11:22:36;22.40;32.70
80701;DHT22;71609;42.630;23.380;2023-12-20T11:25:11;22.50;32.40
80701;DHT22;71609;42.630;23.380;2023-12-20T11:27:41;22.50;32.50
80701;DHT22;71609;42.630;23.380;2023-12-20T11:30:08;22.50;32.40
80701;DHT22;71609;42.630;23.380;2023-12-20T11:32:36;22.50;32.30
80701;DHT22;71609;42.630;23.380;2023-12-20T11:37:38;22.50;32.20
80701;DHT22;71609;42.630;23.380;2023-12-20T11:40:12;22.50;32.20
80701;DHT22;71609;42.630;23.380;2023-12-20T11:42:49;22.50;32.40
80701;DHT22;71609;42.630;23.380;2023-12-20T11:45:21;22.50;32.50
80701;DHT22;71609;42.630;23.380;2023-12-20T11:47:48;22.60;32.80
80701;DHT22;71609;42.630;23.380;2023-12-20T11:50:19;22.60;33.00
80701;DHT22;71609;42.630;23.380;2023-12-20T11:52:45;22.60;32.90
80701;DHT22;71609;42.630;23.380;2023-12-20T11:55:11;22.60;33.10
80701;DHT22;71609;42.630;23.380;2023-12-20T11:57:38;22.60;33.10
80701;DHT22;71609;42.630;23.380;2023-12-20T12:00:04;22.70;33.00
80701;DHT22;71609;42.630;23.380;2023-12-20T12:02:30;22.70;32.80
80701;DHT22;71609;42.630;23.380;2023-12-20T12:04:56;22.70;33.30
80701;DHT22;71609;42.630;23.380;2023-12-20T12:07:24;22.70;32.60
80701;DHT22;71609;42.630;23.380;2023-12-20T12:09:50;22.70;33.30
80701;DHT22;71609;42.630;23.380;2023-12-20T12:12:16;22.70;33.60
80701;DHT22;71609;42.630;23.380;2023-12-20T12:14:44;22.80;33.20
80701;DHT22;71609;42.630;23.380;2023-12-20T12:17:14;22.80;32.00
80701;DHT22;71609;42.630;23.380;2023-12-20T12:19:41;22.80;32.80
80701;DHT22;71609;42.630;23.380;2023-12-20T12:22:14;22.80;32.60
80701;DHT22;71609;42.630;23.380;2023-12-20T12:24:46;22.80;32.00
80701;DHT22;71609;42.630;23.380;2023-12-20T12:27:13;22.80;32.30
80701;DHT22;71609;42.630;23.380;2023-12-20T12:29:39;22.80;32.10
80701;DHT22;71609;42.630;23.380;2023-12-20T12:32:07;22.80;32.00
80701;DHT22;71609;42.630;23.380;2023-12-20T12:34:34;22.80;32.60
80701;DHT22;71609;42.630;23.380;2023-12-20T12:37:00;22.90;33.10
80701;DHT22;71609;42.630;23.380;2023-12-20T12:39:26;22.80;33.50
80701;DHT22;71609;42.630;23.380;2023-12-20T12:41:52;22.80;33.70
80701;DHT22;71609;42.630;23.380;2023-12-20T12:44:18;22.90;33.90
80701;DHT22;71609;42.630;23.380;2023-12-20T12:46:45;22.90;33.90
80701;DHT22;71609;42.630;23.380;2023-12-20T12:49:11;22.90;34.00
80701;DHT22;71609;42.630;23.380;2023-12-20T12:51:37;22.90;34.10
80701;DHT22;71609;42.630;23.380;2023-12-20T12:54:04;22.90;34.20
80701;DHT22;71609;42.630;23.380;2023-12-20T12:56:30;22.90;34.20
80701;DHT22;71609;42.630;23.380;2023-12-20T12:58:56;23.00;34.30
80701;DHT22;71609;42.630;23.380;2023-12-20T13:01:22;22.90;34.30
80701;DHT22;71609;42.630;23.380;2023-12-20T13:03:47;23.00;34.40
80701;DHT22;71609;42.630;23.380;2023-12-20T13:06:13;23.00;34.40
80701;DHT22;71609;42.630;23.380;2023-12-20T13:08:39;23.00;34.10
80701;DHT22;71609;42.630;23.380;2023-12-20T13:11:05;23.00;34.40
80701;DHT22;71609;42.630;23.380;2023-12-20T13:13:31;23.00;34.30
80701;DHT22;71609;42.630;23.380;2023-12-20T13:15:57;23.10;34.40
80701;DHT22;71609;42.630;23.380;2023-12-20T13:18:23;23.10;34.30
80701;DHT22;71609;42.630;23.380;2023-12-20T13:20:49;23.10;34.20
80701;DHT22;71609;42.630;23.380;2023-12-20T13:23:15;23.00;34.20
80701;DHT22;71609;42.630;23.380;2023-12-20T13:25:43;23.10;34.50
80701;DHT22;71609;42.630;23.380;2023-12-20T13:28:11;23.10;34.80
80701;DHT22;71609;42.630;23.380;2023-12-20T13:30:36;23.10;34.80
80701;DHT22;71609;42.630;23.380;2023-12-20T13:33:02;23.10;34.80
80701;DHT22;71609;42.630;23.380;2023-12-20T13:35:28;23.10;34.40
80701;DHT22;71609;42.630;23.380;2023-12-20T13:37:54;23.10;34.10
80701;DHT22;71609;42.630;23.380;2023-12-20T13:40:19;23.10;34.20
80701;DHT22;71609;42.630;23.380;2023-12-20T13:42:45;23.10;34.30
80701;DHT22;71609;42.630;23.380;2023-12-20T13:45:11;23.10;34.40
80701;DHT22;71609;42.630;23.380;2023-12-20T13:47:37;23.10;33.90
80701;DHT22;71609;42.630;23.380;2023-12-20T13:50:03;23.10;33.20
80701;DHT22;71609;42.630;23.380;2023-12-20T13:52:29;23.10;33.20
80701;DHT22;71609;42.630;23.380;2023-12-20T13:54:55;23.00;33.20
80701;DHT22;71609;42.630;23.380;2023-12-20T13:57:21;23.00;33.20
80701;DHT22;71609;42.630;23.380;2023-12-20T13:59:47;23.00;33.30
80701;DHT22;71609;42.630;23.380;2023-12-20T14:02:13;23.10;33.40
80701;DHT22;71609;42.630;23.380;2023-12-20T14:04:39;23.10;33.50
80701;DHT22;71609;42.630;23.380;2023-12-20T14:07:05;23.10;33.80
80701;DHT22;71609;42.630;23.380;2023-12-20T14:09:33;23.10;34.10
80701;DHT22;71609;42.630;23.380;2023-12-20T14:11:59;23.00;34.10
80701;DHT22;71609;42.630;23.380;2023-12-20T14:14:25;23.10;34.20
80701;DHT22;71609;42.630;23.380;2023-12-20T14:19:26;23.10;34.10
80701;DHT22;71609;42.630;23.380;2023-12-20T14:21:52;23.10;34.00
80701;DHT22;71609;42.630;23.380;2023-12-20T14:24:17;23.10;33.90
80701;DHT22;71609;42.630;23.380;2023-12-20T14:26:43;23.10;34.00
80701;DHT22;71609;42.630;23.380;2023-12-20T14:29:09;23.10;34.00
80701;DHT22;71609;42.630;23.380;2023-12-20T14:31:34;23.10;33.90
80701;DHT22;71609;42.630;23.380;2023-12-20T14:34:00;23.10;35.20
80701;DHT22;71609;42.630;23.380;2023-12-20T14:36:29;23.10;33.80
80701;DHT22;71609;42.630;23.380;2023-12-20T14:38:56;23.10;33.70
80701;DHT22;71609;42.630;23.380;2023-12-20T14:41:22;23.10;33.90
80701;DHT22;71609;42.630;23.380;2023-12-20T14:43:53;23.10;34.00
80701;DHT22;71609;42.630;23.380;2023-12-20T14:46:19;23.10;33.90
80701;DHT22;71609;42.630;23.380;2023-12-20T14:48:44;23.10;33.90
80701;DHT22;71609;42.630;23.380;2023-12-20T14:51:10;23.10;34.00
80701;DHT22;71609;42.630;23.380;2023-12-20T14:53:37;23.10;33.80
80701;DHT22;71609;42.630;23.380;2023-12-20T14:56:04;23.10;33.80
80701;DHT22;71609;42.630;23.380;2023-12-20T14:58:31;23.10;33.80
80701;DHT22;71609;42.630;23.380;2023-12-20T15:00:57;23.10;33.80
80701;DHT22;71609;42.630;23.380;2023-12-20T15:03:23;23.10;33.80
80701;DHT22;71609;42.630;23.380;2023-12-20T15:05:49;23.10;33.90
80701;DHT22;71609;42.630;23.380;2023-12-20T15:08:15;23.10;33.60
80701;DHT22;71609;42.630;23.380;2023-12-20T15:10:41;23.10;33.40
80701;DHT22;71609;42.630;23.380;2023-12-20T15:13:07;23.10;33.50
80701;DHT22;71609;42.630;23.380;2023-12-20T15:15:33;23.10;33.90
80701;DHT22;71609;42.630;23.380;2023-12-20T15:18:02;23.10;34.20
80701;DHT22;71609;42.630;23.380;2023-12-20T15:20:29;23.10;33.80